createdAt,value
2019-05-23T00:03:18.184Z,12.68
2019-05-23T00:08:41.462Z,12.85
2019-05-23T00:13:49.407Z,12.73
2019-05-23T00:18:56.316Z,12.78
2019-05-23T00:24:03.115Z,12.86
2019-05-23T00:29:10.618Z,12.60
2019-05-23T00:34:17.917Z,12.93
2019-05-23T00:39:23.048Z,12.96
2019-05-23T00:44:27.963Z,12.68
2019-05-23T00:49:33.718Z,12.80
2019-05-23T00:54:39.334Z,12.84
2019-05-23T00:59:44.346Z,12.76
2019-05-23T01:04:50.849Z,12.82
2019-05-23T01:09:55.201Z,12.61
2019-05-23T01:14:59.574Z,12.66
2019-05-23T01:20:08.082Z,12.90
2019-05-23T01:25:13.999Z,12.68
2019-05-23T01:30:38.358Z,12.74
2019-05-23T01:35:42.946Z,12.78
2019-05-23T01:40:47.432Z,12.69
2019-05-23T01:45:52.405Z,12.58
2019-05-23T01:50:57.747Z,12.63
2019-05-23T01:56:02.216Z,12.50
2019-05-23T02:01:07.342Z,12.54
2019-05-23T02:06:11.897Z,12.51
2019-05-23T02:11:18.458Z,12.46
2019-05-23T02:16:23.536Z,12.58
2019-05-23T02:21:28.686Z,12.35
2019-05-23T02:26:33.732Z,12.21
2019-05-23T02:31:38.831Z,12.25
2019-05-23T02:36:43.189Z,12.25
2019-05-23T02:41:54.831Z,12.23
2019-05-23T02:47:03.853Z,12.36
2019-05-23T02:52:15.696Z,12.17
2019-05-23T02:57:22.097Z,12.06
2019-05-23T03:02:46.786Z,11.93
2019-05-23T03:07:53.342Z,12.00
2019-05-23T03:12:58.856Z,12.17
2019-05-23T03:18:04.945Z,11.99
2019-05-23T03:23:13.369Z,12.15
2019-05-23T03:28:19.231Z,12.11
2019-05-23T03:33:25.293Z,11.85
2019-05-23T03:38:30.132Z,11.84
2019-05-23T03:43:36.226Z,11.86
2019-05-23T03:48:42.468Z,11.76
2019-05-23T03:53:47.728Z,12.06
2019-05-23T03:58:54.364Z,11.93
2019-05-23T04:04:00.779Z,11.90
2019-05-23T04:09:08.212Z,11.75
2019-05-23T04:14:12.955Z,11.81
2019-05-23T04:19:17.814Z,11.86
2019-05-23T04:24:23.006Z,11.70
2019-05-23T04:29:27.618Z,11.67
2019-05-23T04:34:32.016Z,12.08
2019-05-23T04:39:36.458Z,12.08
2019-05-23T04:44:44.000Z,11.67
2019-05-23T04:49:47.763Z,11.84
2019-05-23T04:54:52.188Z,11.91
2019-05-23T04:59:56.865Z,11.91
2019-05-23T05:05:05.489Z,11.86
2019-05-23T05:10:14.449Z,12.02
2019-05-23T05:15:19.555Z,12.29
2019-05-23T05:20:24.119Z,12.62
2019-05-23T05:25:29.470Z,12.47
2019-05-23T05:30:34.188Z,12.33
2019-05-23T05:35:39.197Z,12.33
2019-05-23T05:40:43.561Z,12.59
2019-05-23T05:45:47.938Z,12.53
2019-05-23T05:50:53.047Z,12.52
2019-05-23T05:55:58.422Z,12.50
2019-05-23T06:01:04.813Z,12.29
2019-05-23T06:06:13.866Z,12.63
2019-05-23T06:11:18.276Z,12.79
2019-05-23T06:16:22.728Z,12.76
2019-05-23T06:21:28.916Z,13.05
2019-05-23T06:26:33.308Z,13.28
2019-05-23T06:31:40.029Z,13.00
2019-05-23T06:36:44.768Z,12.95
2019-05-23T06:41:49.291Z,12.76
2019-05-23T06:46:55.230Z,13.05
2019-05-23T06:51:59.734Z,13.53
2019-05-23T06:57:04.536Z,13.46
2019-05-23T07:02:09.147Z,13.56
2019-05-23T07:07:14.454Z,13.20
2019-05-23T07:12:19.099Z,13.29
2019-05-23T07:17:25.331Z,13.54
2019-05-23T07:22:29.744Z,13.66
2019-05-23T07:27:35.437Z,14.35
2019-05-23T07:32:39.991Z,14.43
2019-05-23T07:37:44.462Z,14.56
2019-05-23T07:42:49.170Z,15.02
2019-05-23T07:47:53.768Z,14.71
2019-05-23T07:52:59.873Z,14.44
2019-05-23T07:58:04.673Z,14.78
2019-05-23T08:03:10.491Z,14.96
2019-05-23T08:08:15.153Z,15.29
2019-05-23T08:13:19.583Z,14.96
2019-05-23T08:18:23.951Z,15.49
2019-05-23T08:23:28.377Z,16.02
2019-05-23T08:28:34.088Z,16.18
2019-05-23T08:33:40.093Z,16.10
2019-05-23T08:38:44.812Z,15.74
2019-05-23T08:43:49.339Z,15.57
2019-05-23T08:48:53.760Z,15.57
2019-05-23T08:53:58.160Z,16.28
2019-05-23T08:59:02.705Z,15.47
2019-05-23T09:04:08.938Z,15.67
2019-05-23T09:09:29.070Z,15.81
2019-05-23T09:14:21.156Z,16.39
2019-05-23T09:19:26.397Z,16.23
2019-05-23T09:24:30.893Z,16.24
2019-05-23T09:29:36.851Z,16.49
2019-05-23T09:34:42.111Z,16.07
2019-05-23T09:39:47.885Z,16.21
2019-05-23T09:44:52.259Z,16.33
2019-05-23T09:49:56.665Z,16.56
2019-05-23T09:55:01.039Z,16.33
2019-05-23T10:00:09.536Z,16.52
2019-05-23T10:05:14.067Z,16.76
2019-05-23T10:10:19.665Z,16.56
2019-05-23T10:15:34.624Z,16.74
2019-05-23T10:20:39.363Z,16.83
2019-05-23T10:25:44.002Z,17.04
2019-05-23T10:30:48.378Z,16.95
2019-05-23T10:36:00.243Z,17.19
2019-05-23T10:40:59.914Z,17.04
2019-05-23T10:46:04.292Z,17.35
2019-05-23T10:51:08.701Z,17.21
2019-05-23T10:56:13.306Z,17.27
2019-05-23T11:01:17.683Z,17.22
2019-05-23T11:06:22.301Z,17.05
2019-05-23T11:11:27.158Z,17.09
2019-05-23T11:16:31.604Z,17.50
2019-05-23T11:21:35.975Z,17.38
2019-05-23T11:26:40.450Z,17.38
2019-05-23T11:31:44.985Z,17.59
2019-05-23T11:36:49.494Z,17.65
2019-05-23T11:41:53.859Z,17.71
2019-05-23T11:46:58.591Z,17.50
2019-05-23T11:52:03.092Z,17.67
2019-05-23T11:57:09.642Z,17.74
2019-05-23T12:02:18.630Z,17.90
2019-05-23T12:07:30.825Z,17.93
2019-05-23T12:12:35.174Z,18.14
2019-05-23T12:17:40.975Z,18.00
2019-05-23T12:22:45.677Z,18.02
2019-05-23T12:27:50.133Z,18.00
2019-05-23T12:32:55.542Z,17.83
2019-05-23T12:38:02.378Z,18.06
2019-05-23T12:43:06.047Z,18.13
2019-05-23T12:48:12.042Z,18.27
2019-05-23T12:53:17.866Z,18.17
2019-05-23T12:58:22.994Z,17.85
2019-05-23T13:03:27.509Z,17.88
2019-05-23T13:08:33.079Z,18.43
2019-05-23T13:13:37.520Z,18.28
2019-05-23T13:18:41.866Z,18.38
2019-05-23T13:23:46.326Z,18.28
2019-05-23T13:28:50.770Z,18.46
2019-05-23T13:33:55.277Z,18.48
2019-05-23T13:38:59.888Z,18.02
2019-05-23T13:44:04.583Z,18.26
2019-05-23T13:49:08.996Z,18.41
2019-05-23T13:54:14.469Z,18.40
2019-05-23T13:59:18.919Z,18.17
2019-05-23T14:04:23.861Z,18.10
2019-05-23T14:09:28.982Z,18.44
2019-05-23T14:14:33.596Z,18.34
2019-05-23T14:19:38.116Z,18.25
2019-05-23T14:24:43.643Z,18.65
2019-05-23T14:29:48.139Z,18.38
2019-05-23T14:34:54.144Z,18.39
2019-05-23T14:40:00.311Z,18.54
2019-05-23T14:45:08.140Z,18.52
2019-05-23T14:50:20.716Z,18.63
2019-05-23T14:55:25.843Z,18.53
2019-05-23T15:00:30.464Z,18.56
2019-05-23T15:05:34.997Z,18.14
2019-05-23T15:10:39.442Z,18.15
2019-05-23T15:15:43.933Z,18.49
2019-05-23T15:20:48.452Z,18.44
2019-05-23T15:25:52.891Z,18.28
2019-05-23T15:30:57.253Z,18.14
2019-05-23T15:36:01.763Z,18.14
2019-05-23T15:41:06.139Z,18.28
2019-05-23T15:46:10.539Z,18.24
2019-05-23T15:51:16.625Z,18.23
2019-05-23T15:56:59.916Z,18.17
2019-05-23T16:02:05.947Z,18.28
2019-05-23T16:07:11.846Z,18.27
2019-05-23T16:12:16.457Z,18.28
2019-05-23T16:17:20.829Z,18.63
2019-05-23T16:22:25.259Z,18.70
2019-05-23T16:27:29.795Z,18.20
2019-05-23T16:32:34.264Z,18.26
2019-05-23T16:37:38.706Z,18.30
2019-05-23T16:42:43.048Z,18.42
2019-05-23T16:47:47.498Z,18.28
2019-05-23T16:52:52.009Z,18.22
2019-05-23T16:57:57.988Z,18.24
2019-05-23T17:03:06.944Z,18.28
2019-05-23T17:08:29.544Z,18.34
2019-05-23T17:13:36.609Z,18.24
2019-05-23T17:18:42.590Z,18.19
2019-05-23T17:23:51.625Z,18.29
2019-05-23T17:28:57.622Z,18.25
2019-05-23T17:34:02.302Z,18.14
2019-05-23T17:39:10.073Z,18.13
2019-05-23T17:44:14.748Z,18.17
2019-05-23T17:49:19.286Z,18.02
2019-05-23T17:54:24.229Z,17.98
2019-05-23T17:59:28.737Z,17.86
2019-05-23T18:04:33.293Z,17.71
2019-05-23T18:09:37.635Z,17.66
2019-05-23T18:14:42.048Z,17.61
2019-05-23T18:19:46.418Z,17.58
2019-05-23T18:24:50.818Z,17.50
2019-05-23T18:29:55.698Z,17.39
2019-05-23T18:35:00.277Z,17.33
2019-05-23T18:40:07.321Z,17.26
2019-05-23T18:45:12.760Z,17.20
2019-05-23T18:50:19.460Z,17.13
2019-05-23T18:55:24.182Z,17.05
2019-05-23T19:00:47.385Z,16.91
2019-05-23T19:05:52.123Z,16.81
2019-05-23T19:10:56.460Z,16.75
2019-05-23T19:16:00.849Z,16.67
2019-05-23T19:21:05.978Z,16.55
2019-05-23T19:26:10.570Z,16.41
2019-05-23T19:31:16.264Z,16.30
2019-05-23T19:36:20.797Z,16.20
2019-05-23T19:41:36.886Z,16.06
2019-05-23T19:46:31.529Z,15.92
2019-05-23T19:51:36.111Z,15.81
2019-05-23T19:56:40.455Z,15.64
2019-05-23T20:01:47.979Z,15.68
2019-05-23T20:06:52.981Z,15.53
2019-05-23T20:11:57.703Z,15.38
2019-05-23T20:17:02.119Z,15.33
2019-05-23T20:22:06.507Z,15.16
2019-05-23T20:27:11.082Z,15.04
2019-05-23T20:32:15.424Z,14.98
2019-05-23T20:37:20.371Z,14.97
2019-05-23T20:42:24.759Z,14.69
2019-05-23T20:47:29.343Z,14.73
2019-05-23T20:52:33.781Z,14.71
2019-05-23T20:57:39.129Z,14.64
2019-05-23T21:02:43.767Z,14.54
2019-05-23T21:07:48.128Z,14.40
2019-05-23T21:12:52.518Z,14.27
2019-05-23T21:17:56.950Z,14.21
2019-05-23T21:23:01.370Z,14.08
2019-05-23T21:28:05.744Z,14.01
2019-05-23T21:33:10.267Z,13.93
2019-05-23T21:38:14.631Z,13.83
2019-05-23T21:43:19.130Z,13.90
2019-05-23T21:48:23.545Z,13.79
2019-05-23T21:53:28.132Z,13.75
2019-05-23T21:58:32.505Z,13.60
2019-05-23T22:03:54.360Z,13.61
2019-05-23T22:08:58.724Z,13.59
2019-05-23T22:14:03.101Z,13.48
2019-05-23T22:19:09.407Z,13.51
2019-05-23T22:24:14.925Z,13.32
2019-05-23T22:29:19.489Z,13.18
2019-05-23T22:34:31.175Z,13.27
2019-05-23T22:39:35.630Z,13.21
2019-05-23T22:44:40.071Z,13.03
2019-05-23T22:49:44.398Z,13.03
2019-05-23T22:54:48.777Z,13.02
2019-05-23T22:59:53.168Z,12.91
2019-05-23T23:04:57.885Z,12.90
2019-05-23T23:10:04.015Z,12.79
2019-05-23T23:15:08.420Z,12.71
2019-05-23T23:20:12.973Z,12.62
2019-05-23T23:25:17.392Z,12.68
2019-05-23T23:30:26.974Z,12.56
2019-05-23T23:35:31.370Z,12.45
2019-05-23T23:40:35.845Z,12.45
2019-05-23T23:45:59.347Z,12.53
2019-05-23T23:51:21.992Z,12.40
2019-05-23T23:56:44.457Z,12.35
